sensor_id;sensor_type;location;lat;lon;timestamp;pressure;altitude;pressure_sealevel;temperature;humidity
68476;BME280;55464;48.266;14.188;2023-04-02T00:01:48;96919.16;;;9.26;73.44
68476;BME280;55464;48.266;14.188;2023-04-02T00:04:21;96919.06;;;9.23;73.79
68476;BME280;55464;48.266;14.188;2023-04-02T00:06:49;96922.16;;;9.21;73.87
68476;BME280;55464;48.266;14.188;2023-04-02T00:09:24;96916.59;;;9.18;74.09
68476;BME280;55464;48.266;14.188;2023-04-02T00:11:52;96923.69;;;9.19;73.90
68476;BME280;55464;48.266;14.188;2023-04-02T00:16:53;96919.69;;;9.16;74.30
68476;BME280;55464;48.266;14.188;2023-04-02T00:22:11;96926.78;;;9.17;74.61
68476;BME280;55464;48.266;14.188;2023-04-02T00:24:38;96902.94;;;9.05;74.77
68476;BME280;55464;48.266;14.188;2023-04-02T00:27:08;96925.97;;;9.17;74.90
68476;BME280;55464;48.266;14.188;2023-04-02T00:29:34;96927.16;;;9.16;75.04
68476;BME280;55464;48.266;14.188;2023-04-02T00:31:59;96921.66;;;9.16;74.97
68476;BME280;55464;48.266;14.188;2023-04-02T00:34:31;96929.19;;;9.19;75.04
68476;BME280;55464;48.266;14.188;2023-04-02T00:36:58;96922.53;;;9.20;75.16
68476;BME280;55464;48.266;14.188;2023-04-02T00:39:25;96928.38;;;9.18;74.98
68476;BME280;55464;48.266;14.188;2023-04-02T00:41:55;96927.59;;;9.18;75.21
68476;BME280;55464;48.266;14.188;2023-04-02T00:44:31;96918.91;;;9.16;75.24
68476;BME280;55464;48.266;14.188;2023-04-02T00:47:02;96923.69;;;9.19;75.06
68476;BME280;55464;48.266;14.188;2023-04-02T00:49:37;96924.47;;;9.19;75.11
68476;BME280;55464;48.266;14.188;2023-04-02T00:52:06;96928.03;;;9.20;75.06
68476;BME280;55464;48.266;14.188;2023-04-02T00:54:38;96920.94;;;9.19;75.09
68476;BME280;55464;48.266;14.188;2023-04-02T00:57:13;96924.47;;;9.19;75.04
68476;BME280;55464;48.266;14.188;2023-04-02T00:59:52;96922.44;;;9.16;75.05
68476;BME280;55464;48.266;14.188;2023-04-02T01:02:30;96920.88;;;9.15;75.16
68476;BME280;55464;48.266;14.188;2023-04-02T01:05:03;96925.97;;;9.17;75.02
68476;BME280;55464;48.266;14.188;2023-04-02T01:08:07;96921.22;;;9.14;75.14
68476;BME280;55464;48.266;14.188;2023-04-02T01:13:36;96922.78;;;9.15;75.44
68476;BME280;55464;48.266;14.188;2023-04-02T01:24:17;96922.72;;;9.11;74.58
68476;BME280;55464;48.266;14.188;2023-04-02T01:26:58;96920.78;;;9.12;74.50
68476;BME280;55464;48.266;14.188;2023-04-02T01:29:30;96928.56;;;9.09;74.38
68476;BME280;55464;48.266;14.188;2023-04-02T01:32:03;96919.97;;;9.11;74.05
68476;BME280;55464;48.266;14.188;2023-04-02T01:34:30;96926.63;;;9.10;73.92
68476;BME280;55464;48.266;14.188;2023-04-02T01:37:08;96922.28;;;9.09;74.34
68476;BME280;55464;48.266;14.188;2023-04-02T01:39:56;96928.56;;;9.09;74.48
68476;BME280;55464;48.266;14.188;2023-04-02T01:45:19;96932.03;;;9.06;74.65
68476;BME280;55464;48.266;14.188;2023-04-02T01:47:46;96932.03;;;9.06;74.49
68476;BME280;55464;48.266;14.188;2023-04-02T01:50:22;96935.66;;;9.11;74.38
68476;BME280;55464;48.266;14.188;2023-04-02T01:52:51;96927.25;;;9.03;74.44
68476;BME280;55464;48.266;14.188;2023-04-02T01:55:31;96934.41;;;9.08;74.67
68476;BME280;55464;48.266;14.188;2023-04-02T01:57:57;96935.22;;;9.08;74.53
68476;BME280;55464;48.266;14.188;2023-04-02T02:00:26;96937.53;;;9.06;74.37
68476;BME280;55464;48.266;14.188;2023-04-02T02:02:52;96937.53;;;9.06;74.78
68476;BME280;55464;48.266;14.188;2023-04-02T02:05:20;96944.19;;;9.05;75.17
68476;BME280;55464;48.266;14.188;2023-04-02T02:07:50;96945.31;;;9.04;74.98
68476;BME280;55464;48.266;14.188;2023-04-02T02:10:22;96948.53;;;9.06;74.78
68476;BME280;55464;48.266;14.188;2023-04-02T02:12:49;96947.38;;;9.07;74.77
68476;BME280;55464;48.266;14.188;2023-04-02T02:15:17;96949.31;;;9.07;74.73
68476;BME280;55464;48.266;14.188;2023-04-02T02:17:43;96953.66;;;9.08;74.79
68476;BME280;55464;48.266;14.188;2023-04-02T02:20:10;96956.78;;;9.06;74.56
68476;BME280;55464;48.266;14.188;2023-04-02T02:22:39;96954.03;;;9.06;74.50
68476;BME280;55464;48.266;14.188;2023-04-02T02:25:10;96956.41;;;9.08;74.71
68476;BME280;55464;48.266;14.188;2023-04-02T02:27:48;96950.91;;;9.08;74.66
68476;BME280;55464;48.266;14.188;2023-04-02T02:30:35;96958.00;;;9.09;74.72
68476;BME280;55464;48.266;14.188;2023-04-02T02:33:41;96952.50;;;9.09;74.49
68476;BME280;55464;48.266;14.188;2023-04-02T02:36:30;96957.22;;;9.08;74.60
68476;BME280;55464;48.266;14.188;2023-04-02T02:39:10;96951.97;;;9.03;74.78
68476;BME280;55464;48.266;14.188;2023-04-02T02:41:44;96957.13;;;9.05;74.81
68476;BME280;55464;48.266;14.188;2023-04-02T02:44:20;96969.72;;;9.06;74.47
68476;BME280;55464;48.266;14.188;2023-04-02T02:46:53;96965.38;;;9.05;74.99
68476;BME280;55464;48.266;14.188;2023-04-02T02:49:25;96971.66;;;9.05;74.91
68476;BME280;55464;48.266;14.188;2023-04-02T02:51:59;96966.06;;;9.02;74.88
68476;BME280;55464;48.266;14.188;2023-04-02T02:54:26;96963.69;;;9.00;74.77
68476;BME280;55464;48.266;14.188;2023-04-02T02:56:58;96975.13;;;9.02;75.19
68476;BME280;55464;48.266;14.188;2023-04-02T02:59:27;96968.03;;;9.01;75.13
68476;BME280;55464;48.266;14.188;2023-04-02T03:01:54;96984.19;;;9.03;75.14
68476;BME280;55464;48.266;14.188;2023-04-02T03:04:23;96978.31;;;9.04;75.35
68476;BME280;55464;48.266;14.188;2023-04-02T03:06:51;96982.22;;;9.03;75.29
68476;BME280;55464;48.266;14.188;2023-04-02T03:09:38;96979.47;;;9.03;75.56
68476;BME280;55464;48.266;14.188;2023-04-02T03:17:57;96970.44;;;9.03;75.69
68476;BME280;55464;48.266;14.188;2023-04-02T03:20:47;96981.78;;;9.01;75.79
68476;BME280;55464;48.266;14.188;2023-04-02T03:23:18;96984.06;;;8.99;75.93
68476;BME280;55464;48.266;14.188;2023-04-02T03:28:38;96993.47;;;8.98;75.64
68476;BME280;55464;48.266;14.188;2023-04-02T03:31:09;96996.56;;;8.97;75.68
68476;BME280;55464;48.266;14.188;2023-04-02T03:33:42;97000.47;;;8.96;75.47
68476;BME280;55464;48.266;14.188;2023-04-02T03:38:54;96992.94;;;8.93;75.11
68476;BME280;55464;48.266;14.188;2023-04-02T03:41:40;96993.38;;;8.95;75.23
68476;BME280;55464;48.266;14.188;2023-04-02T03:44:20;96993.66;;;8.89;75.30
68476;BME280;55464;48.266;14.188;2023-04-02T03:46:52;96998.00;;;8.91;75.72
68476;BME280;55464;48.266;14.188;2023-04-02T03:49:33;96998.34;;;8.89;75.82
68476;BME280;55464;48.266;14.188;2023-04-02T03:52:04;97004.72;;;8.93;75.69
68476;BME280;55464;48.266;14.188;2023-04-02T03:54:30;97006.34;;;8.94;75.86
68476;BME280;55464;48.266;14.188;2023-04-02T03:56:56;97005.16;;;8.95;75.69
68476;BME280;55464;48.266;14.188;2023-04-02T03:59:46;97011.00;;;8.94;75.62
68476;BME280;55464;48.266;14.188;2023-04-02T04:04:49;97022.34;;;8.92;75.47
68476;BME280;55464;48.266;14.188;2023-04-02T04:07:27;97016.41;;;8.90;75.60
68476;BME280;55464;48.266;14.188;2023-04-02T04:09:55;97024.66;;;8.90;76.01
68476;BME280;55464;48.266;14.188;2023-04-02T04:12:55;97028.56;;;8.89;76.14
68476;BME280;55464;48.266;14.188;2023-04-02T04:15:33;97034.06;;;8.89;75.76
68476;BME280;55464;48.266;14.188;2023-04-02T04:20:49;97041.41;;;8.85;75.46
68476;BME280;55464;48.266;14.188;2023-04-02T04:23:27;97040.16;;;8.82;75.18
68476;BME280;55464;48.266;14.188;2023-04-02T04:26:21;97052.41;;;8.85;74.98
68476;BME280;55464;48.266;14.188;2023-04-02T04:32:27;97052.84;;;8.87;75.04
68476;BME280;55464;48.266;14.188;2023-04-02T04:35:23;97059.50;;;8.86;75.20
68476;BME280;55464;48.266;14.188;2023-04-02T04:37:57;97057.09;;;8.84;75.54
68476;BME280;55464;48.266;14.188;2023-04-02T04:40:33;97070.50;;;8.86;75.46
68476;BME280;55464;48.266;14.188;2023-04-02T04:43:03;97055.50;;;8.83;75.44
68476;BME280;55464;48.266;14.188;2023-04-02T04:45:39;97059.75;;;8.81;75.88
68476;BME280;55464;48.266;14.188;2023-04-02T04:48:12;97068.78;;;8.81;75.86
68476;BME280;55464;48.266;14.188;2023-04-02T04:53:23;97066.84;;;8.82;76.16
68476;BME280;55464;48.266;14.188;2023-04-02T04:55:51;97067.56;;;8.79;76.41
68476;BME280;55464;48.266;14.188;2023-04-02T04:58:48;97077.38;;;8.80;76.51
68476;BME280;55464;48.266;14.188;2023-04-02T05:01:16;97077.38;;;8.80;76.68
68476;BME280;55464;48.266;14.188;2023-04-02T05:04:00;97083.34;;;8.82;76.69
68476;BME280;55464;48.266;14.188;2023-04-02T05:09:33;97090.41;;;8.83;76.65
68476;BME280;55464;48.266;14.188;2023-04-02T05:20:20;97085.03;;;8.86;76.63
68476;BME280;55464;48.266;14.188;2023-04-02T05:23:01;97092.38;;;8.82;76.77
68476;BME280;55464;48.266;14.188;2023-04-02T05:25:30;97094.34;;;8.82;76.77
68476;BME280;55464;48.266;14.188;2023-04-02T05:28:14;97094.78;;;8.84;76.71
68476;BME280;55464;48.266;14.188;2023-04-02T05:31:21;97093.88;;;8.80;77.03
68476;BME280;55464;48.266;14.188;2023-04-02T05:33:51;97100.19;;;8.80;77.01
68476;BME280;55464;48.266;14.188;2023-04-02T05:36:23;97102.44;;;8.78;77.21
68476;BME280;55464;48.266;14.188;2023-04-02T05:38:50;97104.06;;;8.79;77.13
68476;BME280;55464;48.266;14.188;2023-04-02T05:44:13;97109.56;;;8.79;76.81
68476;BME280;55464;48.266;14.188;2023-04-02T05:46:49;97103.72;;;8.81;76.89
68476;BME280;55464;48.266;14.188;2023-04-02T05:49:23;97110.09;;;8.85;76.52
68476;BME280;55464;48.266;14.188;2023-04-02T05:51:55;97099.00;;;8.81;76.47
68476;BME280;55464;48.266;14.188;2023-04-02T05:54:27;97116.41;;;8.85;76.10
68476;BME280;55464;48.266;14.188;2023-04-02T05:57:01;97119.94;;;8.86;75.73
68476;BME280;55464;48.266;14.188;2023-04-02T05:59:36;97125.78;;;8.84;75.99
68476;BME280;55464;48.266;14.188;2023-04-02T06:07:14;97125.56;;;8.89;76.30
68476;BME280;55464;48.266;14.188;2023-04-02T06:09:55;97127.03;;;8.87;76.21
68476;BME280;55464;48.266;14.188;2023-04-02T06:12:42;97128.75;;;8.92;76.20
68476;BME280;55464;48.266;14.188;2023-04-02T06:15:13;97126.53;;;8.97;76.47
68476;BME280;55464;48.266;14.188;2023-04-02T06:20:17;97141.91;;;8.98;76.25
68476;BME280;55464;48.266;14.188;2023-04-02T06:22:44;97146.84;;;8.93;76.15
68476;BME280;55464;48.266;14.188;2023-04-02T06:27:55;97147.88;;;8.88;76.23
68476;BME280;55464;48.266;14.188;2023-04-02T06:30:27;97150.72;;;8.92;77.13
68476;BME280;55464;48.266;14.188;2023-04-02T06:32:55;97158.97;;;8.92;77.38
68476;BME280;55464;48.266;14.188;2023-04-02T06:35:21;97153.47;;;8.92;77.30
68476;BME280;55464;48.266;14.188;2023-04-02T06:37:49;97163.34;;;8.93;77.27
68476;BME280;55464;48.266;14.188;2023-04-02T06:43:10;97172.16;;;8.86;77.44
68476;BME280;55464;48.266;14.188;2023-04-02T06:45:40;97172.50;;;8.84;77.49
68476;BME280;55464;48.266;14.188;2023-04-02T06:48:17;97178.09;;;8.88;77.23
68476;BME280;55464;48.266;14.188;2023-04-02T06:51:04;97187.16;;;8.88;77.41
68476;BME280;55464;48.266;14.188;2023-04-02T06:53:37;97182.13;;;8.91;77.28
68476;BME280;55464;48.266;14.188;2023-04-02T06:59:06;97185.91;;;8.86;77.37
68476;BME280;55464;48.266;14.188;2023-04-02T07:01:36;97191.41;;;8.86;77.48
68476;BME280;55464;48.266;14.188;2023-04-02T07:04:03;97201.22;;;8.87;77.31
68476;BME280;55464;48.266;14.188;2023-04-02T07:06:28;97195.03;;;8.90;77.41
68476;BME280;55464;48.266;14.188;2023-04-02T07:08:54;97195.72;;;8.87;77.14
68476;BME280;55464;48.266;14.188;2023-04-02T07:11:21;97197.34;;;8.88;77.26
68476;BME280;55464;48.266;14.188;2023-04-02T07:13:48;97197.78;;;8.90;77.48
68476;BME280;55464;48.266;14.188;2023-04-02T07:16:16;97207.56;;;8.87;77.32
68476;BME280;55464;48.266;14.188;2023-04-02T07:18:42;97211.44;;;8.86;77.04
68476;BME280;55464;48.266;14.188;2023-04-02T07:21:07;97211.31;;;8.83;77.58
68476;BME280;55464;48.266;14.188;2023-04-02T07:23:33;97213.28;;;8.82;77.75
68476;BME280;55464;48.266;14.188;2023-04-02T07:25:58;97217.50;;;8.80;78.16
68476;BME280;55464;48.266;14.188;2023-04-02T07:28:24;97211.56;;;8.78;77.81
68476;BME280;55464;48.266;14.188;2023-04-02T07:30:50;97209.59;;;8.78;78.04
68476;BME280;55464;48.266;14.188;2023-04-02T07:33:18;97219.13;;;8.81;78.02
68476;BME280;55464;48.266;14.188;2023-04-02T07:35:44;97223.00;;;8.80;77.84
68476;BME280;55464;48.266;14.188;2023-04-02T07:38:10;97215.47;;;8.77;77.76
68476;BME280;55464;48.266;14.188;2023-04-02T07:40:36;97210.31;;;8.75;78.12
68476;BME280;55464;48.266;14.188;2023-04-02T07:43:02;97226.22;;;8.82;78.20
68476;BME280;55464;48.266;14.188;2023-04-02T07:45:28;97223.09;;;8.83;78.41
68476;BME280;55464;48.266;14.188;2023-04-02T07:47:53;97234.59;;;8.85;78.41
68476;BME280;55464;48.266;14.188;2023-04-02T07:50:18;97236.41;;;8.81;78.40
68476;BME280;55464;48.266;14.188;2023-04-02T07:52:44;97227.81;;;8.83;78.29
68476;BME280;55464;48.266;14.188;2023-04-02T07:55:11;97228.97;;;8.82;78.55
68476;BME280;55464;48.266;14.188;2023-04-02T07:57:45;97239.59;;;8.83;78.56
68476;BME280;55464;48.266;14.188;2023-04-02T08:00:13;97245.81;;;8.80;78.79
68476;BME280;55464;48.266;14.188;2023-04-02T08:02:38;97236.75;;;8.80;78.60
68476;BME280;55464;48.266;14.188;2023-04-02T08:05:04;97247.72;;;8.80;78.91
68476;BME280;55464;48.266;14.188;2023-04-02T08:07:29;97245.81;;;8.80;78.95
68476;BME280;55464;48.266;14.188;2023-04-02T08:09:55;97254.94;;;8.84;78.73
68476;BME280;55464;48.266;14.188;2023-04-02T08:12:20;97255.75;;;8.85;78.86
68476;BME280;55464;48.266;14.188;2023-04-02T08:14:46;97261.69;;;8.87;78.94
68476;BME280;55464;48.266;14.188;2023-04-02T08:17:11;97260.09;;;8.86;78.78
68476;BME280;55464;48.266;14.188;2023-04-02T08:19:36;97263.53;;;8.83;79.26
68476;BME280;55464;48.266;14.188;2023-04-02T08:22:02;97265.72;;;8.89;79.22
68476;BME280;55464;48.266;14.188;2023-04-02T08:24:28;97269.34;;;8.94;78.40
68476;BME280;55464;48.266;14.188;2023-04-02T08:26:53;97267.78;;;8.93;78.61
68476;BME280;55464;48.266;14.188;2023-04-02T08:29:19;97268.13;;;8.91;78.54
68476;BME280;55464;48.266;14.188;2023-04-02T08:31:45;97288.69;;;8.97;78.43
68476;BME280;55464;48.266;14.188;2023-04-02T08:34:11;97279.09;;;8.91;78.17
68476;BME280;55464;48.266;14.188;2023-04-02T08:36:38;97280.69;;;8.92;78.15
68476;BME280;55464;48.266;14.188;2023-04-02T08:39:06;97279.44;;;8.89;78.65
68476;BME280;55464;48.266;14.188;2023-04-02T08:41:44;97281.41;;;8.89;78.45
68476;BME280;55464;48.266;14.188;2023-04-02T08:49:30;97288.84;;;8.76;79.38
68476;BME280;55464;48.266;14.188;2023-04-02T08:51:57;97292.75;;;8.75;79.50
68476;BME280;55464;48.266;14.188;2023-04-02T08:54:27;97287.59;;;8.74;79.60
68476;BME280;55464;48.266;14.188;2023-04-02T08:56:58;97297.78;;;8.73;79.69
68476;BME280;55464;48.266;14.188;2023-04-02T08:59:38;97312.78;;;8.76;79.75
68476;BME280;55464;48.266;14.188;2023-04-02T09:05:05;97303.75;;;8.75;79.69
68476;BME280;55464;48.266;14.188;2023-04-02T09:07:31;97308.31;;;8.71;79.54
68476;BME280;55464;48.266;14.188;2023-04-02T09:09:58;97302.00;;;8.70;79.29
68476;BME280;55464;48.266;14.188;2023-04-02T09:12:29;97307.97;;;8.73;79.86
68476;BME280;55464;48.266;14.188;2023-04-02T09:17:26;97317.94;;;8.65;80.05
68476;BME280;55464;48.266;14.188;2023-04-02T09:20:01;97321.13;;;8.67;80.33
68476;BME280;55464;48.266;14.188;2023-04-02T09:22:31;97312.09;;;8.66;80.59
68476;BME280;55464;48.266;14.188;2023-04-02T09:25:00;97325.13;;;8.69;80.02
68476;BME280;55464;48.266;14.188;2023-04-02T09:27:34;97321.69;;;8.73;80.08
68476;BME280;55464;48.266;14.188;2023-04-02T09:30:31;97320.13;;;8.72;80.31
68476;BME280;55464;48.266;14.188;2023-04-02T09:33:04;97327.19;;;8.73;80.58
68476;BME280;55464;48.266;14.188;2023-04-02T09:38:26;97331.09;;;8.72;80.45
68476;BME280;55464;48.266;14.188;2023-04-02T09:41:19;97333.84;;;8.72;80.60
68476;BME280;55464;48.266;14.188;2023-04-02T09:43:45;97319.41;;;8.62;80.61
68476;BME280;55464;48.266;14.188;2023-04-02T09:46:22;97334.53;;;8.68;80.89
68476;BME280;55464;48.266;14.188;2023-04-02T09:48:55;97344.97;;;8.75;80.65
68476;BME280;55464;48.266;14.188;2023-04-02T09:51:29;97350.44;;;8.75;80.77
68476;BME280;55464;48.266;14.188;2023-04-02T09:56:39;97344.13;;;8.75;79.69
68476;BME280;55464;48.266;14.188;2023-04-02T09:59:18;97361.09;;;8.77;79.91
68476;BME280;55464;48.266;14.188;2023-04-02T10:04:40;97357.53;;;8.76;80.19
68476;BME280;55464;48.266;14.188;2023-04-02T10:07:32;97354.00;;;8.76;80.42
68476;BME280;55464;48.266;14.188;2023-04-02T10:12:35;97357.53;;;8.76;80.66
68476;BME280;55464;48.266;14.188;2023-04-02T10:15:05;97356.75;;;8.76;80.74
68476;BME280;55464;48.266;14.188;2023-04-02T10:17:35;97364.41;;;8.82;80.50
68476;BME280;55464;48.266;14.188;2023-04-02T10:20:22;97359.50;;;8.76;81.11
68476;BME280;55464;48.266;14.188;2023-04-02T10:22:50;97370.94;;;8.78;80.78
68476;BME280;55464;48.266;14.188;2023-04-02T10:25:18;97361.56;;;8.79;80.74
68476;BME280;55464;48.266;14.188;2023-04-02T10:27:56;97360.72;;;8.78;80.60
68476;BME280;55464;48.266;14.188;2023-04-02T10:42:08;97364.31;;;8.91;81.48
68476;BME280;55464;48.266;14.188;2023-04-02T10:47:13;97374.72;;;8.98;80.22
68476;BME280;55464;48.266;14.188;2023-04-02T10:52:47;97377.09;;;8.99;80.70
68476;BME280;55464;48.266;14.188;2023-04-02T10:55:19;97376.66;;;8.97;80.85
68476;BME280;55464;48.266;14.188;2023-04-02T10:57:46;97385.72;;;8.98;80.41
68476;BME280;55464;48.266;14.188;2023-04-02T11:03:13;97384.44;;;9.07;80.46
68476;BME280;55464;48.266;14.188;2023-04-02T11:05:52;97393.38;;;9.04;81.31
68476;BME280;55464;48.266;14.188;2023-04-02T11:08:46;97393.75;;;9.03;81.39
68476;BME280;55464;48.266;14.188;2023-04-02T11:11:35;97383.88;;;9.02;80.88
68476;BME280;55464;48.266;14.188;2023-04-02T11:14:13;97395.91;;;9.09;80.46
68476;BME280;55464;48.266;14.188;2023-04-02T11:16:40;97395.66;;;9.15;80.76
68476;BME280;55464;48.266;14.188;2023-04-02T11:24:44;97397.72;;;9.18;79.98
68476;BME280;55464;48.266;14.188;2023-04-02T11:42:33;97424.22;;;9.22;81.40
68476;BME280;55464;48.266;14.188;2023-04-02T11:50:44;97429.47;;;9.15;80.33
68476;BME280;55464;48.266;14.188;2023-04-02T11:55:40;97439.19;;;9.13;80.35
68476;BME280;55464;48.266;14.188;2023-04-02T12:11:47;97442.06;;;9.16;81.13
68476;BME280;55464;48.266;14.188;2023-04-02T12:16:57;97448.50;;;9.20;81.35
68476;BME280;55464;48.266;14.188;2023-04-02T12:19:22;97452.84;;;9.21;81.49
68476;BME280;55464;48.266;14.188;2023-04-02T12:21:51;97453.19;;;9.20;81.51
68476;BME280;55464;48.266;14.188;2023-04-02T12:24:22;97452.84;;;9.21;81.59
68476;BME280;55464;48.266;14.188;2023-04-02T12:27:06;97453.75;;;9.25;81.76
68476;BME280;55464;48.266;14.188;2023-04-02T12:29:32;97451.81;;;9.26;81.80
68476;BME280;55464;48.266;14.188;2023-04-02T12:31:58;97462.38;;;9.24;81.92
68476;BME280;55464;48.266;14.188;2023-04-02T12:34:26;97453.28;;;9.23;81.65
68476;BME280;55464;48.266;14.188;2023-04-02T12:36:59;97465.44;;;9.22;81.59
68476;BME280;55464;48.266;14.188;2023-04-02T12:39:28;97465.13;;;9.24;81.24
68476;BME280;55464;48.266;14.188;2023-04-02T12:41:53;97465.91;;;9.24;81.29
68476;BME280;55464;48.266;14.188;2023-04-02T12:44:24;97467.16;;;9.27;81.40
68476;BME280;55464;48.266;14.188;2023-04-02T12:46:50;97467.50;;;9.25;81.14
68476;BME280;55464;48.266;14.188;2023-04-02T12:49:35;97469.44;;;9.25;80.86
68476;BME280;55464;48.266;14.188;2023-04-02T12:52:04;97472.19;;;9.25;81.06
68476;BME280;55464;48.266;14.188;2023-04-02T12:54:35;97473.81;;;9.26;81.08
68476;BME280;55464;48.266;14.188;2023-04-02T12:59:54;97477.59;;;9.34;81.75
68476;BME280;55464;48.266;14.188;2023-04-02T13:02:24;97486.19;;;9.32;81.74
68476;BME280;55464;48.266;14.188;2023-04-02T13:04:58;97491.22;;;9.30;82.19
68476;BME280;55464;48.266;14.188;2023-04-02T13:07:29;97474.94;;;9.25;81.81
68476;BME280;55464;48.266;14.188;2023-04-02T13:09:58;97482.53;;;9.28;81.77
68476;BME280;55464;48.266;14.188;2023-04-02T13:12:38;97482.75;;;9.23;81.74
68476;BME280;55464;48.266;14.188;2023-04-02T13:15:19;97489.88;;;9.24;81.72
68476;BME280;55464;48.266;14.188;2023-04-02T13:18:00;97491.22;;;9.30;82.04
68476;BME280;55464;48.266;14.188;2023-04-02T13:20:37;97497.28;;;9.36;82.91
68476;BME280;55464;48.266;14.188;2023-04-02T13:25:51;97496.50;;;9.35;82.37
68476;BME280;55464;48.266;14.188;2023-04-02T13:28:17;97504.06;;;9.38;81.43
68476;BME280;55464;48.266;14.188;2023-04-02T13:30:43;97511.66;;;9.41;81.40
68476;BME280;55464;48.266;14.188;2023-04-02T13:33:08;97512.91;;;9.44;81.77
68476;BME280;55464;48.266;14.188;2023-04-02T13:35:34;97515.31;;;9.45;81.78
68476;BME280;55464;48.266;14.188;2023-04-02T13:37:59;97519.06;;;9.41;80.89
68476;BME280;55464;48.266;14.188;2023-04-02T13:40:27;97529.84;;;9.46;80.24
68476;BME280;55464;48.266;14.188;2023-04-02T13:42:53;97529.06;;;9.45;79.83
68476;BME280;55464;48.266;14.188;2023-04-02T13:45:25;97525.97;;;9.47;78.37
68476;BME280;55464;48.266;14.188;2023-04-02T13:47:51;97535.69;;;9.44;78.75
68476;BME280;55464;48.266;14.188;2023-04-02T13:50:20;97529.63;;;9.39;78.68
68476;BME280;55464;48.266;14.188;2023-04-02T13:52:49;97539.50;;;9.40;78.38
68476;BME280;55464;48.266;14.188;2023-04-02T13:55:16;97547.41;;;9.41;78.30
68476;BME280;55464;48.266;14.188;2023-04-02T13:57:42;97552.09;;;9.41;78.64
68476;BME280;55464;48.266;14.188;2023-04-02T14:00:08;97556.78;;;9.40;79.22
68476;BME280;55464;48.266;14.188;2023-04-02T14:02:34;97550.84;;;9.38;78.66
68476;BME280;55464;48.266;14.188;2023-04-02T14:05:16;97559.88;;;9.39;78.09
68476;BME280;55464;48.266;14.188;2023-04-02T14:13:46;97563.75;;;9.25;76.35
68476;BME280;55464;48.266;14.188;2023-04-02T14:21:43;97585.16;;;9.20;76.95
68476;BME280;55464;48.266;14.188;2023-04-02T14:24:36;97586.00;;;9.20;76.05
68476;BME280;55464;48.266;14.188;2023-04-02T14:27:23;97590.09;;;9.14;76.96
68476;BME280;55464;48.266;14.188;2023-04-02T14:30:14;97586.41;;;9.10;77.26
68476;BME280;55464;48.266;14.188;2023-04-02T14:33:08;97598.09;;;9.07;77.49
68476;BME280;55464;48.266;14.188;2023-04-02T14:35:43;97594.06;;;9.04;77.71
68476;BME280;55464;48.266;14.188;2023-04-02T14:38:41;97605.06;;;9.04;77.86
68476;BME280;55464;48.266;14.188;2023-04-02T14:44:02;97610.53;;;9.04;78.53
68476;BME280;55464;48.266;14.188;2023-04-02T14:46:32;97611.72;;;9.03;78.74
68476;BME280;55464;48.266;14.188;2023-04-02T14:49:05;97618.00;;;9.04;79.27
68476;BME280;55464;48.266;14.188;2023-04-02T14:51:48;97623.97;;;9.06;78.61
68476;BME280;55464;48.266;14.188;2023-04-02T14:57:12;97624.28;;;9.04;77.04
68476;BME280;55464;48.266;14.188;2023-04-02T15:05:04;97629.00;;;9.04;77.38
68476;BME280;55464;48.266;14.188;2023-04-02T15:07:39;97638.88;;;9.05;76.79
68476;BME280;55464;48.266;14.188;2023-04-02T15:10:23;97649.88;;;9.05;76.65
68476;BME280;55464;48.266;14.188;2023-04-02T15:12:51;97655.03;;;9.06;76.76
68476;BME280;55464;48.266;14.188;2023-04-02T15:15:40;97649.88;;;9.05;76.85
68476;BME280;55464;48.266;14.188;2023-04-02T15:18:15;97654.06;;;9.02;76.68
68476;BME280;55464;48.266;14.188;2023-04-02T15:23:49;97650.06;;;9.00;76.18
68476;BME280;55464;48.266;14.188;2023-04-02T15:26:34;97657.97;;;9.01;75.57
68476;BME280;55464;48.266;14.188;2023-04-02T15:31:36;97670.56;;;9.02;77.03
68476;BME280;55464;48.266;14.188;2023-04-02T16:00:41;97723.81;;;8.77;74.84
68476;BME280;55464;48.266;14.188;2023-04-02T16:11:25;97739.25;;;8.60;74.67
68476;BME280;55464;48.266;14.188;2023-04-02T16:13:57;97746.91;;;8.55;74.56
68476;BME280;55464;48.266;14.188;2023-04-02T16:16:29;97750.97;;;8.48;74.28
68476;BME280;55464;48.266;14.188;2023-04-02T16:21:31;97761.63;;;8.41;74.53
68476;BME280;55464;48.266;14.188;2023-04-02T16:23:57;97778.09;;;8.41;74.64
68476;BME280;55464;48.266;14.188;2023-04-02T16:36:46;97795.63;;;8.28;71.40
68476;BME280;55464;48.266;14.188;2023-04-02T16:47:10;97807.75;;;8.18;71.86
68476;BME280;55464;48.266;14.188;2023-04-02T16:49:56;97804.56;;;8.16;71.17
68476;BME280;55464;48.266;14.188;2023-04-02T16:57:53;97830.72;;;8.13;72.54
68476;BME280;55464;48.266;14.188;2023-04-02T17:00:33;97836.72;;;8.07;72.70
68476;BME280;55464;48.266;14.188;2023-04-02T17:08:40;97848.69;;;7.93;72.17
68476;BME280;55464;48.266;14.188;2023-04-02T17:11:09;97854.97;;;7.94;71.16
68476;BME280;55464;48.266;14.188;2023-04-02T17:13:45;97852.56;;;7.92;71.10
68476;BME280;55464;48.266;14.188;2023-04-02T17:16:20;97857.56;;;7.90;70.95
68476;BME280;55464;48.266;14.188;2023-04-02T17:18:51;97854.81;;;7.90;70.30
68476;BME280;55464;48.266;14.188;2023-04-02T17:21:19;97859.81;;;7.88;70.26
68476;BME280;55464;48.266;14.188;2023-04-02T17:23:57;97872.75;;;7.88;70.51
68476;BME280;55464;48.266;14.188;2023-04-02T17:26:27;97865.00;;;7.81;70.39
68476;BME280;55464;48.266;14.188;2023-04-02T17:28:56;97867.28;;;7.79;70.53
68476;BME280;55464;48.266;14.188;2023-04-02T17:31:24;97870.81;;;7.80;71.02
68476;BME280;55464;48.266;14.188;2023-04-02T17:33:51;97882.78;;;7.75;71.84
68476;BME280;55464;48.266;14.188;2023-04-02T17:41:48;97886.47;;;7.62;71.46
68476;BME280;55464;48.266;14.188;2023-04-02T17:52:44;97910.84;;;7.54;69.82
68476;BME280;55464;48.266;14.188;2023-04-02T18:03:36;97928.22;;;7.41;69.87
68476;BME280;55464;48.266;14.188;2023-04-02T18:06:31;97919.53;;;7.39;69.26
68476;BME280;55464;48.266;14.188;2023-04-02T18:17:25;97957.25;;;7.25;69.33
68476;BME280;55464;48.266;14.188;2023-04-02T18:19:59;97969.16;;;7.20;69.94